Guatemala, Guatemala

3:09 PM CST on July 27, 2016 (GMT -0600)
La Aurora International | | Change Station

Elev 4885 ft 14.58 °N, 90.53 °W | Updated 9 minutes ago

Scattered Clouds
Scattered Clouds
77 °F
Feels Like 77 °F
N
9
Wind Variable Wind from NE

Today
High -- | Low -- °F
--% Chance of Precip.
Yesterday
High -- | Low -- °F
Precip. -- in
Pressure 30.18 in
Visibility 6.2 miles
Clouds Scattered Clouds 2000 ft
Few 2400 ft
Scattered Clouds 9000 ft
Dew Point 57 °F
Humidity 50%
Rainfall 0.00 in
Snow Depth Not available.
5:44 AM 6:32 PM
Last Quarter, 39% visible
METAR MGGT 272100Z 04008KT 9999 SCT020 FEW024CB SCT090 25/14 Q1022 A3018 CB SE/S/SW NOSIG
Pressure 30.18 in
Visibility 6.2 miles
Clouds Scattered Clouds 2000 ft
Few 2400 ft
Scattered Clouds 9000 ft
Dew Point 57 °F
Humidity 50%
Rainfall 0.00 in
Snow Depth Not available.
5:44 AM 6:32 PM
Last Quarter, 39% visible
METAR MGGT 272100Z 04008KT 9999 SCT020 FEW024CB SCT090 25/14 Q1022 A3018 CB SE/S/SW NOSIG

10-Day Weather Forecast

No radar image for this location.
×

Almanac

Astronomy

Jul. 27, 2016 Rise Set
Actual Time
Civil Twilight
Nautical Twilight
Astronomical Twilight
Moon
Length of Visible Light
Length of Day
Tomorrow will be .
, % of the Moon is Illuminated

Today's Extremes

Country Highs Country Lows

Community

WunderPhotos

Upload Photos

1,927,936 photos uploaded!

WunderBlog® & News

Nearby

Air Quality

  Air Quality AQ Index Pollutant
Not available.

Snow Depth

Station Depth Elevation

Earthquake Activity

City Distance Mag. Time & Date
Minimum magnitude displayed is 2.5.

Coastal Water Temperatures

Place Temperature

Stations

Nearby Weather Stations

Station Location Temp. Windchill Dew Point Humidity Wind Precip. Elev Updated Type